Flight Track Log - Related Links

Times and Time Zones

All times are in EDT time to prevent confusion due to time zone crossing. See the SKW5631 flight status page for this flight to view local times or setup timezone preferences in your user account.

Time Position Orientation Groundspeed Altitude Reporting Facility
EDT Latitude Longitude Course Direction KTS MPH feet Rate Location/Type
Mon 03:27:56 PM 37.6667 -122.3667 133° Southeast 185 213 2,000  Level Northern Cal TRACON
Mon 03:28:56 PM 37.7000 -122.4167 310° West 265 305 3,800 2,350 Climbing Northern Cal TRACON
Mon 03:29:56 PM 37.6333 -122.4500 202° Southwest 287 330 6,700 2,727 Climbing Northern Cal TRACON
Mon 03:30:13 PM 37.6192 -122.4511 184° South 279 321 7,300 2,278 Climbing Oakland Center
Mon 03:31:15 PM 37.5353 -122.4528 181° South 305 351 9,700 2,341 Climbing Oakland Center
Mon 03:32:16 PM 37.4472 -122.4408 174° South 318 366 12,100 2,098 Climbing Oakland Center
Mon 03:33:00 PM 37.2396 -122.0694 133° Southeast  Level FlightAware Approximate
Mon 03:33:18 PM 37.3811 -122.3567 135° Southeast 340 391 14,000  Level Oakland Center
Mon 03:34:19 PM 37.3086 -122.2333 126° Southeast 369 425 16,000 2,000 Climbing Oakland Center
Mon 03:35:21 PM 37.2436 -122.1253 127° Southeast 385 443 18,100 1,756 Climbing Oakland Center
Mon 03:36:22 PM 37.1769 -122.0161 127° Southeast 394 453 19,600 1,610 Climbing Oakland Center
Mon 03:37:24 PM 37.1075 -121.9017 127° Southeast 411 473 21,400 1,707 Climbing Oakland Center
Mon 03:38:25 PM 37.0367 -121.7858 127° Southeast 419 482 23,100 1,659 Climbing Oakland Center
Mon 03:39:27 PM 36.9653 -121.6689 127° Southeast 425 489 24,800 1,512 Climbing Oakland Center
Mon 03:40:28 PM 36.8925 -121.5508 128° Southeast 430 495 26,200 1,220 Climbing Oakland Center
Mon 03:41:30 PM 36.8144 -121.4206 127° Southeast 438 504 27,300 1,016 Climbing Oakland Center
Mon 03:42:32 PM 36.7367 -121.2978 128° Southeast 450 518 28,300 976 Climbing Oakland Center
Mon 03:43:33 PM 36.6589 -121.1739 128° Southeast 455 524 29,300 984 Climbing Oakland Center
Mon 03:44:34 PM 36.5811 -121.0481 128° Southeast 459 528 30,300 829 Climbing Oakland Center
Mon 03:45:36 PM 36.4864 -120.8961 128° Southeast 460 529 31,000 341 Climbing Oakland Center
Mon 03:46:37 PM 36.4047 -120.7628 127° Southeast 480 552 31,000  Level Oakland Center
Mon 03:47:39 PM 36.3222 -120.6292 127° Southeast 487 560 31,000  Level Oakland Center
Mon 03:48:40 PM 36.2361 -120.5003 130° Southeast 485 558 31,000  Level Oakland Center
Mon 03:49:42 PM 36.1492 -120.3625 128° Southeast 508 585 31,000  Level Oakland Center
Mon 03:50:43 PM 36.0631 -120.2278 128° Southeast 496 571 31,000  Level Oakland Center
Mon 03:51:45 PM 35.9806 -120.0989 128° Southeast 475 547 31,000  Level Oakland Center
Mon 03:52:46 PM 35.8944 -119.9664 129° Southeast 486 559 31,000 -49 Level Oakland Center
Mon 03:53:48 PM 35.8094 -119.8339 128° Southeast 489 563 30,900  Descending Oakland Center
Mon 03:54:49 PM 35.7250 -119.7044 129° Southeast 484 557 31,000 49 Climbing Oakland Center
Mon 03:55:51 PM 35.6211 -119.5478 129° Southeast 489 563 31,000  Level Oakland Center
Mon 03:56:52 PM 35.5378 -119.4178 128° Southeast 485 558 31,000  Level Oakland Center
Mon 03:57:56 PM 35.4544 -119.2903 129° Southeast 482 555 31,000  Level Los Angeles Center
Mon 03:58:58 PM 35.3686 -119.1611 129° Southeast 485 558 31,000  Level Los Angeles Center
Mon 04:00:00 PM 35.2836 -119.0325 129° Southeast 486 559 31,000  Level Los Angeles Center
Mon 04:01:02 PM 35.1983 -118.9036 129° Southeast 487 560 31,000 -480 Level Los Angeles Center
Mon 04:02:05 PM 35.0944 -118.7517 130° Southeast 485 558 30,000 -1,008 Descending Los Angeles Center
Mon 04:03:07 PM 35.0117 -118.6267 129° Southeast 477 549 28,900 -1,065 Descending Los Angeles Center
Mon 04:04:09 PM 34.9303 -118.5050 129° Southeast 467 537 27,800 -1,355 Descending Los Angeles Center
Mon 04:05:11 PM 34.8406 -118.3725 130° Southeast 469 540 26,100 -1,645 Descending Los Angeles Center
Mon 04:06:13 PM 34.7600 -118.2531 129° Southeast 464 534 24,400 -1,500 Descending Los Angeles Center
Mon 04:07:15 PM 34.6786 -118.1350 130° Southeast 458 527 23,000 -1,113 Descending Los Angeles Center
Mon 04:08:17 PM 34.6056 -118.0081 125° Southeast 463 533 22,100 -919 Descending Los Angeles Center
Mon 04:09:19 PM 34.5433 -117.8736 119° Southeast 463 533 21,100 -1,065 Descending Los Angeles Center
Mon 04:10:21 PM 34.4731 -117.7206 119° Southeast 441 507 19,900 -1,355 Descending Los Angeles Center
Mon 04:11:23 PM 34.4150 -117.5961 119° Southeast 429 494 18,300 -1,344 Descending Los Angeles Center
Mon 04:12:26 PM 34.3564 -117.4672 119° Southeast 430 495 17,100 -576 Descending Los Angeles Center
Mon 04:13:28 PM 34.3014 -117.3469 119° Southeast 417 480 17,100  Level Los Angeles Center
Mon 04:14:30 PM 34.2422 -117.2219 120° Southeast 429 494 17,100 -629 Level Los Angeles Center
Mon 04:15:32 PM 34.1761 -117.0789 119° Southeast 422 486 15,800 -1,161 Descending Los Angeles Center
Mon 04:16:34 PM 34.1222 -116.9633 119° Southeast 403 464 14,700 -823 Descending Los Angeles Center
Mon 04:17:36 PM 34.0703 -116.8508 119° Southeast 356 410 14,100 -290 Descending Los Angeles Center
Mon 04:18:38 PM 34.0219 -116.7475 119° Southeast 355 409 14,100 -581 Level Los Angeles Center
Mon 04:19:40 PM 33.9758 -116.6519 120° Southeast 331 381 12,900 -1,403 Descending Los Angeles Center
Mon 04:20:42 PM 33.9383 -116.5631 117° Southeast 303 349 11,200 -1,488 Descending Los Angeles Center
Mon 04:21:45 PM 33.9244 -116.4697 100° East 285 328 9,800 -1,488 Descending Los Angeles Center
Mon 04:22:47 PM 33.9061 -116.3831 104° East 265 305 8,100 -2,222 Descending Los Angeles Center
Mon 04:24:27 PM 33.7833 -116.4000 187° South 229 264 3,800 -2,213 Descending Southern California TRACON
Mon 04:25:27 PM 33.7667 -116.4500 248° West 207 238 2,200 -1,357 Descending Southern California TRACON
Mon 04:26:22 PM 33.8000 -116.4833 320° Northwest 148 170 1,200 -1,091 Descending Southern California TRACON
Mon 04:28:00 PM 33.8167 -116.5000 292° West  Level FlightAware Approximate
Mon 04:35:00 PM 33.8297 -116.5067 292° West  Level Estimated
Mon 04:36:00 PM 33.8297 -116.5067 292° West  Level Estimated

Login

Don't have an account? Register now (free) for customized features, flight alerts, and more!